sensor_id;sensor_type;location;lat;lon;timestamp;pressure;altitude;pressure_sealevel;temperature;humidity
5380;BME280;2713;42.680;23.310;2022-10-16T00:00:30;95719.19;;;12.96;69.12
5380;BME280;2713;42.680;23.310;2022-10-16T00:02:57;95725.06;;;12.98;69.18
5380;BME280;2713;42.680;23.310;2022-10-16T00:05:24;95712.25;;;13.11;68.17
5380;BME280;2713;42.680;23.310;2022-10-16T00:07:52;95721.34;;;12.92;69.19
5380;BME280;2713;42.680;23.310;2022-10-16T00:10:19;95724.72;;;12.78;69.24
5380;BME280;2713;42.680;23.310;2022-10-16T00:12:46;95727.63;;;12.83;69.27
5380;BME280;2713;42.680;23.310;2022-10-16T00:15:12;95732.31;;;12.88;69.01
5380;BME280;2713;42.680;23.310;2022-10-16T00:17:39;95722.69;;;12.74;69.40
5380;BME280;2713;42.680;23.310;2022-10-16T00:20:07;95734.72;;;12.75;68.93
5380;BME280;2713;42.680;23.310;2022-10-16T00:22:34;95733.66;;;12.46;70.24
5380;BME280;2713;42.680;23.310;2022-10-16T00:25:02;95742.22;;;12.55;70.21
5380;BME280;2713;42.680;23.310;2022-10-16T00:27:29;95736.03;;;12.70;69.23
5380;BME280;2713;42.680;23.310;2022-10-16T00:29:56;95734.25;;;12.71;68.79
5380;BME280;2713;42.680;23.310;2022-10-16T00:32:23;95749.31;;;12.61;69.17
5380;BME280;2713;42.680;23.310;2022-10-16T00:34:50;95743.53;;;12.51;69.71
5380;BME280;2713;42.680;23.310;2022-10-16T00:37:18;95754.16;;;12.49;69.40
5380;BME280;2713;42.680;23.310;2022-10-16T00:39:45;95752.00;;;12.30;70.00
5380;BME280;2713;42.680;23.310;2022-10-16T00:42:16;95747.69;;;12.14;70.73
5380;BME280;2713;42.680;23.310;2022-10-16T00:44:47;95728.81;;;12.12;70.20
5380;BME280;2713;42.680;23.310;2022-10-16T00:47:19;95743.06;;;12.47;69.38
5380;BME280;2713;42.680;23.310;2022-10-16T00:49:49;95737.13;;;12.39;69.47
5380;BME280;2713;42.680;23.310;2022-10-16T00:52:17;95734.75;;;12.29;70.16
5380;BME280;2713;42.680;23.310;2022-10-16T00:54:45;95711.69;;;12.18;70.08
5380;BME280;2713;42.680;23.310;2022-10-16T00:57:14;95737.97;;;12.31;70.51
5380;BME280;2713;42.680;23.310;2022-10-16T00:59:42;95736.31;;;12.38;70.16
5380;BME280;2713;42.680;23.310;2022-10-16T01:02:12;95747.38;;;12.63;68.63
5380;BME280;2713;42.680;23.310;2022-10-16T01:04:42;95722.91;;;12.18;69.46
5380;BME280;2713;42.680;23.310;2022-10-16T01:07:14;95746.59;;;12.54;68.97
5380;BME280;2713;42.680;23.310;2022-10-16T01:09:52;95743.09;;;12.70;68.21
5380;BME280;2713;42.680;23.310;2022-10-16T01:12:32;95748.88;;;12.57;68.51
5380;BME280;2713;42.680;23.310;2022-10-16T01:15:07;95757.91;;;12.69;68.14
5380;BME280;2713;42.680;23.310;2022-10-16T01:17:41;95757.25;;;12.67;67.84
5380;BME280;2713;42.680;23.310;2022-10-16T01:20:14;95743.44;;;12.67;67.89
5380;BME280;2713;42.680;23.310;2022-10-16T01:22:55;95744.31;;;12.74;67.60
5380;BME280;2713;42.680;23.310;2022-10-16T01:25:31;95736.63;;;12.58;68.04
5380;BME280;2713;42.680;23.310;2022-10-16T01:28:02;95734.44;;;12.24;68.99
5380;BME280;2713;42.680;23.310;2022-10-16T01:30:32;95742.56;;;12.29;69.21
5380;BME280;2713;42.680;23.310;2022-10-16T01:33:02;95735.13;;;12.18;69.53
5380;BME280;2713;42.680;23.310;2022-10-16T01:35:36;95736.31;;;12.38;68.55
5380;BME280;2713;42.680;23.310;2022-10-16T01:38:07;95737.84;;;12.47;67.98
5380;BME280;2713;42.680;23.310;2022-10-16T01:40:39;95740.13;;;12.50;67.79
5380;BME280;2713;42.680;23.310;2022-10-16T01:43:14;95740.78;;;12.52;67.60
5380;BME280;2713;42.680;23.310;2022-10-16T01:45:44;95740.78;;;12.52;67.56
5380;BME280;2713;42.680;23.310;2022-10-16T01:48:14;95747.72;;;12.60;67.21
5380;BME280;2713;42.680;23.310;2022-10-16T01:50:44;95755.72;;;12.58;67.01
5380;BME280;2713;42.680;23.310;2022-10-16T01:53:15;95749.00;;;12.41;67.70
5380;BME280;2713;42.680;23.310;2022-10-16T01:55:45;95744.97;;;12.31;67.80
5380;BME280;2713;42.680;23.310;2022-10-16T01:58:15;95752.69;;;12.24;68.42
5380;BME280;2713;42.680;23.310;2022-10-16T02:00:44;95755.78;;;12.19;68.92
5380;BME280;2713;42.680;23.310;2022-10-16T02:03:15;95765.84;;;12.00;69.28
5380;BME280;2713;42.680;23.310;2022-10-16T02:05:47;95757.78;;;11.79;70.40
5380;BME280;2713;42.680;23.310;2022-10-16T02:08:13;95755.56;;;12.06;69.41
5380;BME280;2713;42.680;23.310;2022-10-16T02:10:40;95743.34;;;12.07;69.13
5380;BME280;2713;42.680;23.310;2022-10-16T02:13:10;95757.84;;;12.32;68.61
5380;BME280;2713;42.680;23.310;2022-10-16T02:15:40;95766.34;;;12.26;68.31
5380;BME280;2713;42.680;23.310;2022-10-16T02:18:07;95762.97;;;11.95;69.59
5380;BME280;2713;42.680;23.310;2022-10-16T02:20:43;95766.94;;;11.66;70.52
5380;BME280;2713;42.680;23.310;2022-10-16T02:23:14;95777.63;;;11.88;69.77
5380;BME280;2713;42.680;23.310;2022-10-16T02:25:44;95777.09;;;11.92;69.88
5380;BME280;2713;42.680;23.310;2022-10-16T02:28:16;95779.84;;;11.99;69.67
5380;BME280;2713;42.680;23.310;2022-10-16T02:30:49;95780.59;;;11.85;70.37
5380;BME280;2713;42.680;23.310;2022-10-16T02:33:19;95783.19;;;11.85;69.93
5380;BME280;2713;42.680;23.310;2022-10-16T02:35:49;95776.06;;;11.54;70.74
5380;BME280;2713;42.680;23.310;2022-10-16T02:38:17;95787.94;;;11.65;70.78
5380;BME280;2713;42.680;23.310;2022-10-16T02:40:46;95784.84;;;11.69;70.61
5380;BME280;2713;42.680;23.310;2022-10-16T02:43:13;95787.16;;;11.56;70.89
5380;BME280;2713;42.680;23.310;2022-10-16T02:45:40;95777.53;;;11.73;70.52
5380;BME280;2713;42.680;23.310;2022-10-16T02:48:08;95786.06;;;11.98;69.71
5380;BME280;2713;42.680;23.310;2022-10-16T02:50:35;95793.91;;;11.82;69.85
5380;BME280;2713;42.680;23.310;2022-10-16T02:53:02;95793.91;;;11.82;69.71
5380;BME280;2713;42.680;23.310;2022-10-16T02:55:29;95793.97;;;11.65;70.22
5380;BME280;2713;42.680;23.310;2022-10-16T02:57:56;95795.59;;;11.66;70.13
5380;BME280;2713;42.680;23.310;2022-10-16T03:00:22;95799.81;;;11.76;70.38
5380;BME280;2713;42.680;23.310;2022-10-16T03:02:49;95800.69;;;11.99;69.27
5380;BME280;2713;42.680;23.310;2022-10-16T03:05:18;95800.16;;;12.11;68.76
5380;BME280;2713;42.680;23.310;2022-10-16T03:07:45;95803.50;;;11.89;69.58
5380;BME280;2713;42.680;23.310;2022-10-16T03:10:12;95801.25;;;11.78;69.76
5380;BME280;2713;42.680;23.310;2022-10-16T03:12:38;95801.94;;;11.72;70.38
5380;BME280;2713;42.680;23.310;2022-10-16T03:15:06;95803.69;;;11.88;69.60
5380;BME280;2713;42.680;23.310;2022-10-16T03:17:33;95801.22;;;11.94;69.47
5380;BME280;2713;42.680;23.310;2022-10-16T03:20:00;95812.81;;;11.84;69.88
5380;BME280;2713;42.680;23.310;2022-10-16T03:22:28;95811.03;;;11.76;69.71
5380;BME280;2713;42.680;23.310;2022-10-16T03:24:55;95810.56;;;11.73;70.13
5380;BME280;2713;42.680;23.310;2022-10-16T03:27:22;95817.09;;;11.52;70.68
5380;BME280;2713;42.680;23.310;2022-10-16T03:29:49;95811.22;;;11.66;70.43
5380;BME280;2713;42.680;23.310;2022-10-16T03:32:16;95809.56;;;11.82;69.84
5380;BME280;2713;42.680;23.310;2022-10-16T03:34:43;95819.22;;;11.49;70.67
5380;BME280;2713;42.680;23.310;2022-10-16T03:37:10;95817.88;;;11.61;70.11
5380;BME280;2713;42.680;23.310;2022-10-16T03:39:38;95820.03;;;11.49;69.91
5380;BME280;2713;42.680;23.310;2022-10-16T03:42:05;95820.69;;;11.51;70.03
5380;BME280;2713;42.680;23.310;2022-10-16T03:44:32;95823.66;;;11.32;70.43
5380;BME280;2713;42.680;23.310;2022-10-16T03:46:59;95812.78;;;11.12;70.80
5380;BME280;2713;42.680;23.310;2022-10-16T03:49:26;95810.03;;;10.98;71.47
5380;BME280;2713;42.680;23.310;2022-10-16T03:51:52;95804.66;;;11.07;71.46
5380;BME280;2713;42.680;23.310;2022-10-16T03:54:19;95809.97;;;11.46;70.46
5380;BME280;2713;42.680;23.310;2022-10-16T03:56:48;95805.78;;;11.21;70.98
5380;BME280;2713;42.680;23.310;2022-10-16T03:59:15;95809.34;;;11.36;70.01
5380;BME280;2713;42.680;23.310;2022-10-16T04:01:42;95806.59;;;11.13;70.77
5380;BME280;2713;42.680;23.310;2022-10-16T04:04:09;95805.63;;;11.14;70.68
5380;BME280;2713;42.680;23.310;2022-10-16T04:06:36;95814.09;;;11.08;71.13
5380;BME280;2713;42.680;23.310;2022-10-16T04:09:03;95807.69;;;11.35;69.78
5380;BME280;2713;42.680;23.310;2022-10-16T04:11:29;95812.41;;;11.40;69.33
5380;BME280;2713;42.680;23.310;2022-10-16T04:13:58;95809.97;;;11.30;69.63
5380;BME280;2713;42.680;23.310;2022-10-16T04:16:24;95809.22;;;11.05;69.98
5380;BME280;2713;42.680;23.310;2022-10-16T04:18:51;95817.50;;;11.01;70.50
5380;BME280;2713;42.680;23.310;2022-10-16T04:21:18;95817.50;;;11.01;70.28
5380;BME280;2713;42.680;23.310;2022-10-16T04:23:45;95816.19;;;10.97;70.12
5380;BME280;2713;42.680;23.310;2022-10-16T04:26:12;95813.59;;;10.97;70.23
5380;BME280;2713;42.680;23.310;2022-10-16T04:28:38;95816.81;;;11.31;69.20
5380;BME280;2713;42.680;23.310;2022-10-16T04:31:07;95826.41;;;11.39;68.71
5380;BME280;2713;42.680;23.310;2022-10-16T04:33:33;95832.44;;;11.31;69.22
5380;BME280;2713;42.680;23.310;2022-10-16T04:36:01;95820.22;;;11.24;69.63
5380;BME280;2713;42.680;23.310;2022-10-16T04:38:28;95829.03;;;11.23;69.93
5380;BME280;2713;42.680;23.310;2022-10-16T04:40:55;95825.78;;;11.12;70.55
5380;BME280;2713;42.680;23.310;2022-10-16T04:43:23;95826.88;;;11.34;71.15
5380;BME280;2713;42.680;23.310;2022-10-16T04:45:49;95828.84;;;11.32;70.21
5380;BME280;2713;42.680;23.310;2022-10-16T04:48:18;95830.78;;;11.38;69.67
5380;BME280;2713;42.680;23.310;2022-10-16T04:50:45;95840.72;;;11.43;69.63
5380;BME280;2713;42.680;23.310;2022-10-16T04:53:12;95838.13;;;11.43;69.44
5380;BME280;2713;42.680;23.310;2022-10-16T04:55:39;95850.63;;;11.47;69.56
5380;BME280;2713;42.680;23.310;2022-10-16T04:58:06;95852.59;;;11.37;69.62
5380;BME280;2713;42.680;23.310;2022-10-16T05:00:33;95845.41;;;11.47;69.17
5380;BME280;2713;42.680;23.310;2022-10-16T05:03:00;95849.50;;;10.93;70.86
5380;BME280;2713;42.680;23.310;2022-10-16T05:05:28;95856.38;;;11.02;70.73
5380;BME280;2713;42.680;23.310;2022-10-16T05:07:55;95859.13;;;11.25;69.78
5380;BME280;2713;42.680;23.310;2022-10-16T05:10:21;95850.66;;;11.39;69.32
5380;BME280;2713;42.680;23.310;2022-10-16T05:12:48;95855.53;;;11.42;69.39
5380;BME280;2713;42.680;23.310;2022-10-16T05:15:16;95862.84;;;11.14;70.00
5380;BME280;2713;42.680;23.310;2022-10-16T05:17:43;95867.09;;;11.07;70.22
5380;BME280;2713;42.680;23.310;2022-10-16T05:20:10;95856.81;;;10.74;71.38
5380;BME280;2713;42.680;23.310;2022-10-16T05:22:38;95867.22;;;10.90;71.25
5380;BME280;2713;42.680;23.310;2022-10-16T05:25:06;95865.94;;;10.94;71.26
5380;BME280;2713;42.680;23.310;2022-10-16T05:27:33;95865.28;;;10.84;71.40
5380;BME280;2713;42.680;23.310;2022-10-16T05:30:00;95871.78;;;10.80;71.62
5380;BME280;2713;42.680;23.310;2022-10-16T05:32:26;95869.84;;;11.14;70.49
5380;BME280;2713;42.680;23.310;2022-10-16T05:34:53;95870.84;;;11.29;69.53
5380;BME280;2713;42.680;23.310;2022-10-16T05:37:20;95880.44;;;11.37;69.83
5380;BME280;2713;42.680;23.310;2022-10-16T05:39:48;95876.19;;;11.36;70.03
5380;BME280;2713;42.680;23.310;2022-10-16T05:42:15;95876.03;;;11.29;70.71
5380;BME280;2713;42.680;23.310;2022-10-16T05:44:42;95874.06;;;11.31;70.95
5380;BME280;2713;42.680;23.310;2022-10-16T05:47:09;95872.78;;;11.35;70.99
5380;BME280;2713;42.680;23.310;2022-10-16T05:49:36;95880.88;;;11.48;70.61
5380;BME280;2713;42.680;23.310;2022-10-16T05:52:03;95879.28;;;11.07;71.94
5380;BME280;2713;42.680;23.310;2022-10-16T05:54:30;95887.09;;;11.39;71.24
5380;BME280;2713;42.680;23.310;2022-10-16T05:56:58;95889.69;;;11.31;71.43
5380;BME280;2713;42.680;23.310;2022-10-16T05:59:25;95894.72;;;11.25;72.10
5380;BME280;2713;42.680;23.310;2022-10-16T06:01:52;95900.44;;;11.36;71.14
5380;BME280;2713;42.680;23.310;2022-10-16T06:04:19;95901.72;;;11.24;72.24
5380;BME280;2713;42.680;23.310;2022-10-16T06:06:45;95908.88;;;11.30;72.43
5380;BME280;2713;42.680;23.310;2022-10-16T06:09:12;95901.75;;;11.16;72.75
5380;BME280;2713;42.680;23.310;2022-10-16T06:11:39;95909.56;;;11.40;72.02
5380;BME280;2713;42.680;23.310;2022-10-16T06:14:08;95918.66;;;11.52;71.41
5380;BME280;2713;42.680;23.310;2022-10-16T06:16:36;95921.56;;;11.65;70.98
5380;BME280;2713;42.680;23.310;2022-10-16T06:19:03;95919.63;;;11.59;71.22
5380;BME280;2713;42.680;23.310;2022-10-16T06:21:32;95921.88;;;11.54;71.22
5380;BME280;2713;42.680;23.310;2022-10-16T06:23:59;95914.91;;;11.39;71.81
5380;BME280;2713;42.680;23.310;2022-10-16T06:26:27;95921.72;;;11.64;71.06
5380;BME280;2713;42.680;23.310;2022-10-16T06:28:55;95923.53;;;11.72;71.00
5380;BME280;2713;42.680;23.310;2022-10-16T06:31:23;95924.16;;;11.82;70.29
5380;BME280;2713;42.680;23.310;2022-10-16T06:33:53;95922.22;;;11.84;70.26
5380;BME280;2713;42.680;23.310;2022-10-16T06:36:22;95931.50;;;11.86;70.66
5380;BME280;2713;42.680;23.310;2022-10-16T06:38:49;95932.75;;;12.06;69.42
5380;BME280;2713;42.680;23.310;2022-10-16T06:41:18;95934.88;;;12.11;69.37
5380;BME280;2713;42.680;23.310;2022-10-16T06:43:45;95935.25;;;12.39;68.70
5380;BME280;2713;42.680;23.310;2022-10-16T06:46:14;95937.59;;;12.64;68.57
5380;BME280;2713;42.680;23.310;2022-10-16T06:48:42;95940.44;;;13.08;67.68
5380;BME280;2713;42.680;23.310;2022-10-16T06:51:11;95945.31;;;13.42;65.54
5380;BME280;2713;42.680;23.310;2022-10-16T06:53:40;95950.31;;;13.89;63.86
5380;BME280;2713;42.680;23.310;2022-10-16T06:56:08;95951.63;;;14.37;62.15
5380;BME280;2713;42.680;23.310;2022-10-16T06:58:35;95943.59;;;14.53;61.09
5380;BME280;2713;42.680;23.310;2022-10-16T07:01:03;95964.13;;;15.21;59.66
5380;BME280;2713;42.680;23.310;2022-10-16T07:03:30;95951.22;;;15.41;65.03
5380;BME280;2713;42.680;23.310;2022-10-16T07:06:01;95961.19;;;15.31;58.95
5380;BME280;2713;42.680;23.310;2022-10-16T07:08:30;95964.63;;;15.67;57.97
5380;BME280;2713;42.680;23.310;2022-10-16T07:11:00;95962.13;;;15.59;57.83
5380;BME280;2713;42.680;23.310;2022-10-16T07:13:28;95960.97;;;15.68;57.50
5380;BME280;2713;42.680;23.310;2022-10-16T07:15:55;95953.13;;;15.68;57.31
5380;BME280;2713;42.680;23.310;2022-10-16T07:18:22;95972.53;;;16.23;56.30
5380;BME280;2713;42.680;23.310;2022-10-16T07:20:52;95977.44;;;16.60;54.85
5380;BME280;2713;42.680;23.310;2022-10-16T07:23:21;95968.13;;;16.64;55.06
5380;BME280;2713;42.680;23.310;2022-10-16T07:25:53;95972.75;;;16.56;55.01
5380;BME280;2713;42.680;23.310;2022-10-16T07:28:21;95973.06;;;16.46;54.98
5380;BME280;2713;42.680;23.310;2022-10-16T07:30:48;95972.44;;;16.79;54.48
5380;BME280;2713;42.680;23.310;2022-10-16T07:33:15;95973.06;;;16.74;54.19
5380;BME280;2713;42.680;23.310;2022-10-16T07:35:48;95978.81;;;16.97;53.63
5380;BME280;2713;42.680;23.310;2022-10-16T07:38:15;95972.34;;;17.00;53.34
5380;BME280;2713;42.680;23.310;2022-10-16T07:40:43;95972.56;;;16.98;53.55
5380;BME280;2713;42.680;23.310;2022-10-16T07:43:10;95971.22;;;17.22;52.72
5380;BME280;2713;42.680;23.310;2022-10-16T07:45:38;95973.88;;;17.42;52.28
5380;BME280;2713;42.680;23.310;2022-10-16T07:48:12;95970.81;;;17.18;52.18
5380;BME280;2713;42.680;23.310;2022-10-16T07:50:39;95980.47;;;17.11;52.61
5380;BME280;2713;42.680;23.310;2022-10-16T07:53:06;95972.84;;;17.30;52.36
5380;BME280;2713;42.680;23.310;2022-10-16T07:55:33;95955.06;;;17.25;52.27
5380;BME280;2713;42.680;23.310;2022-10-16T07:58:02;95978.84;;;17.91;53.09
5380;BME280;2713;42.680;23.310;2022-10-16T08:00:28;95977.44;;;18.01;51.05
5380;BME280;2713;42.680;23.310;2022-10-16T08:02:56;95970.31;;;18.28;51.05
5380;BME280;2713;42.680;23.310;2022-10-16T08:05:25;95982.63;;;18.47;49.87
5380;BME280;2713;42.680;23.310;2022-10-16T08:07:53;95979.59;;;18.57;49.27
5380;BME280;2713;42.680;23.310;2022-10-16T08:10:21;95976.91;;;18.83;49.67
5380;BME280;2713;42.680;23.310;2022-10-16T08:12:48;95977.63;;;19.10;48.36
5380;BME280;2713;42.680;23.310;2022-10-16T08:15:16;95976.00;;;19.09;48.01
5380;BME280;2713;42.680;23.310;2022-10-16T08:17:43;95950.03;;;19.12;48.00
5380;BME280;2713;42.680;23.310;2022-10-16T08:20:11;95967.72;;;18.99;47.63
5380;BME280;2713;42.680;23.310;2022-10-16T08:22:39;95965.34;;;19.29;47.88
5380;BME280;2713;42.680;23.310;2022-10-16T08:25:07;95956.38;;;19.43;46.74
5380;BME280;2713;42.680;23.310;2022-10-16T08:27:34;95965.06;;;19.50;46.72
5380;BME280;2713;42.680;23.310;2022-10-16T08:30:00;95960.28;;;19.34;46.33
5380;BME280;2713;42.680;23.310;2022-10-16T08:32:29;95959.94;;;19.61;46.23
5380;BME280;2713;42.680;23.310;2022-10-16T08:34:55;95958.34;;;19.54;47.30
5380;BME280;2713;42.680;23.310;2022-10-16T08:37:22;95945.56;;;19.13;47.34
5380;BME280;2713;42.680;23.310;2022-10-16T08:39:50;95953.63;;;18.80;47.25
5380;BME280;2713;42.680;23.310;2022-10-16T08:42:29;95963.03;;;19.07;47.22
5380;BME280;2713;42.680;23.310;2022-10-16T08:45:19;95958.41;;;19.47;45.57
5380;BME280;2713;42.680;23.310;2022-10-16T08:47:59;95956.31;;;19.56;45.60
5380;BME280;2713;42.680;23.310;2022-10-16T08:50:30;95958.88;;;19.94;45.17
5380;BME280;2713;42.680;23.310;2022-10-16T08:52:58;95961.84;;;20.04;45.01
5380;BME280;2713;42.680;23.310;2022-10-16T08:55:32;95958.72;;;19.89;44.62
5380;BME280;2713;42.680;23.310;2022-10-16T08:58:00;95958.44;;;20.21;44.87
5380;BME280;2713;42.680;23.310;2022-10-16T09:00:28;95973.59;;;20.33;43.49
5380;BME280;2713;42.680;23.310;2022-10-16T09:03:05;95960.69;;;19.68;43.08
5380;BME280;2713;42.680;23.310;2022-10-16T09:08:37;95964.78;;;19.64;42.98
5380;BME280;2713;42.680;23.310;2022-10-16T09:11:14;95959.31;;;19.91;42.43
5380;BME280;2713;42.680;23.310;2022-10-16T09:13:50;95953.72;;;19.49;41.48
5380;BME280;2713;42.680;23.310;2022-10-16T09:16:25;95949.22;;;19.12;42.47
5380;BME280;2713;42.680;23.310;2022-10-16T09:19:00;95955.22;;;19.25;42.60
5380;BME280;2713;42.680;23.310;2022-10-16T09:21:34;95951.69;;;19.51;42.40
5380;BME280;2713;42.680;23.310;2022-10-16T09:24:10;95952.00;;;19.23;41.81
5380;BME280;2713;42.680;23.310;2022-10-16T09:26:38;95955.53;;;19.04;41.68
5380;BME280;2713;42.680;23.310;2022-10-16T09:29:05;95955.97;;;19.46;41.40
5380;BME280;2713;42.680;23.310;2022-10-16T09:31:36;95955.91;;;19.52;41.23
5380;BME280;2713;42.680;23.310;2022-10-16T09:34:05;95951.25;;;19.86;41.19
5380;BME280;2713;42.680;23.310;2022-10-16T09:36:39;95949.13;;;20.19;40.27
5380;BME280;2713;42.680;23.310;2022-10-16T09:39:08;95958.22;;;20.48;39.81
5380;BME280;2713;42.680;23.310;2022-10-16T09:41:38;95954.84;;;20.59;39.17
5380;BME280;2713;42.680;23.310;2022-10-16T09:44:18;95949.56;;;20.16;39.50
5380;BME280;2713;42.680;23.310;2022-10-16T09:46:46;95956.19;;;20.00;40.02
5380;BME280;2713;42.680;23.310;2022-10-16T09:49:22;95934.84;;;20.27;39.46
5380;BME280;2713;42.680;23.310;2022-10-16T09:51:50;95935.69;;;20.45;39.08
5380;BME280;2713;42.680;23.310;2022-10-16T09:54:20;95937.59;;;20.56;39.35
5380;BME280;2713;42.680;23.310;2022-10-16T09:56:48;95938.00;;;20.78;39.05
5380;BME280;2713;42.680;23.310;2022-10-16T09:59:19;95930.06;;;20.78;39.41
5380;BME280;2713;42.680;23.310;2022-10-16T10:01:48;95932.31;;;20.56;39.50
5380;BME280;2713;42.680;23.310;2022-10-16T10:04:17;95931.50;;;20.38;39.73
5380;BME280;2713;42.680;23.310;2022-10-16T10:06:46;95931.19;;;20.28;39.82
5380;BME280;2713;42.680;23.310;2022-10-16T10:09:17;95932.47;;;20.43;39.12
5380;BME280;2713;42.680;23.310;2022-10-16T10:11:51;95933.84;;;20.46;38.98
5380;BME280;2713;42.680;23.310;2022-10-16T10:14:24;95919.47;;;20.42;39.51
5380;BME280;2713;42.680;23.310;2022-10-16T10:17:01;95919.28;;;20.61;39.49
5380;BME280;2713;42.680;23.310;2022-10-16T10:19:28;95922.84;;;20.49;37.12
5380;BME280;2713;42.680;23.310;2022-10-16T10:21:56;95919.03;;;20.45;36.60
5380;BME280;2713;42.680;23.310;2022-10-16T10:24:23;95921.72;;;20.20;37.33
5380;BME280;2713;42.680;23.310;2022-10-16T10:26:54;95915.13;;;20.29;37.02
5380;BME280;2713;42.680;23.310;2022-10-16T10:29:36;95912.38;;;20.60;37.03
5380;BME280;2713;42.680;23.310;2022-10-16T10:32:15;95912.16;;;20.44;37.42
5380;BME280;2713;42.680;23.310;2022-10-16T10:34:55;95911.16;;;20.20;36.61
5380;BME280;2713;42.680;23.310;2022-10-16T10:37:38;95907.00;;;20.31;36.82
5380;BME280;2713;42.680;23.310;2022-10-16T10:40:18;95900.91;;;20.05;37.22
5380;BME280;2713;42.680;23.310;2022-10-16T10:42:52;95897.13;;;20.44;37.27
5380;BME280;2713;42.680;23.310;2022-10-16T10:45:26;95895.25;;;20.45;38.33
5380;BME280;2713;42.680;23.310;2022-10-16T10:48:12;95887.69;;;20.66;38.20
5380;BME280;2713;42.680;23.310;2022-10-16T10:50:45;95886.25;;;20.70;38.52
5380;BME280;2713;42.680;23.310;2022-10-16T10:53:27;95880.22;;;20.82;38.25
5380;BME280;2713;42.680;23.310;2022-10-16T10:56:09;95877.41;;;20.58;39.31
5380;BME280;2713;42.680;23.310;2022-10-16T11:02:00;95878.88;;;20.91;38.55
5380;BME280;2713;42.680;23.310;2022-10-16T11:04:37;95876.50;;;21.01;38.66
5380;BME280;2713;42.680;23.310;2022-10-16T11:07:12;95881.78;;;21.19;38.47
5380;BME280;2713;42.680;23.310;2022-10-16T11:09:45;95876.75;;;20.45;35.26
5380;BME280;2713;42.680;23.310;2022-10-16T11:12:17;95872.78;;;19.74;36.05
5380;BME280;2713;42.680;23.310;2022-10-16T11:14:49;95870.00;;;20.12;36.20
5380;BME280;2713;42.680;23.310;2022-10-16T11:17:22;95864.53;;;20.50;35.78
5380;BME280;2713;42.680;23.310;2022-10-16T11:19:54;95861.88;;;20.32;36.19
5380;BME280;2713;42.680;23.310;2022-10-16T11:22:26;95856.66;;;20.62;36.00
5380;BME280;2713;42.680;23.310;2022-10-16T11:25:02;95862.91;;;20.49;37.16
5380;BME280;2713;42.680;23.310;2022-10-16T11:27:36;95853.66;;;20.58;37.08
5380;BME280;2713;42.680;23.310;2022-10-16T11:30:12;95852.63;;;20.41;37.41
5380;BME280;2713;42.680;23.310;2022-10-16T11:32:49;95851.81;;;20.59;36.92
5380;BME280;2713;42.680;23.310;2022-10-16T11:35:22;95852.09;;;20.69;36.83
5380;BME280;2713;42.680;23.310;2022-10-16T11:37:50;95849.53;;;20.62;37.16
5380;BME280;2713;42.680;23.310;2022-10-16T11:40:24;95845.22;;;20.68;37.53
5380;BME280;2713;42.680;23.310;2022-10-16T11:42:54;95851.53;;;20.49;38.01
5380;BME280;2713;42.680;23.310;2022-10-16T11:45:30;95856.84;;;20.06;36.99
5380;BME280;2713;42.680;23.310;2022-10-16T11:48:02;95858.53;;;20.18;37.87
5380;BME280;2713;42.680;23.310;2022-10-16T11:50:34;95856.16;;;20.17;38.00
5380;BME280;2713;42.680;23.310;2022-10-16T11:53:07;95867.53;;;20.36;37.22
5380;BME280;2713;42.680;23.310;2022-10-16T11:55:42;95862.13;;;20.06;37.25
5380;BME280;2713;42.680;23.310;2022-10-16T11:58:16;95857.28;;;20.21;37.15
5380;BME280;2713;42.680;23.310;2022-10-16T12:00:52;95855.78;;;20.32;37.63
5380;BME280;2713;42.680;23.310;2022-10-16T12:03:26;95859.94;;;20.21;37.09
5380;BME280;2713;42.680;23.310;2022-10-16T12:06:05;95850.31;;;20.33;37.43
5380;BME280;2713;42.680;23.310;2022-10-16T12:08:37;95851.00;;;20.58;37.45
5380;BME280;2713;42.680;23.310;2022-10-16T12:11:19;95850.72;;;20.66;38.41
5380;BME280;2713;42.680;23.310;2022-10-16T12:13:46;95855.59;;;20.51;38.24
5380;BME280;2713;42.680;23.310;2022-10-16T12:16:23;95857.19;;;20.52;38.62
5380;BME280;2713;42.680;23.310;2022-10-16T12:19:03;95852.78;;;20.46;38.19
5380;BME280;2713;42.680;23.310;2022-10-16T12:21:35;95855.34;;;20.35;39.00
5380;BME280;2713;42.680;23.310;2022-10-16T12:24:03;95853.06;;;20.38;39.05
5380;BME280;2713;42.680;23.310;2022-10-16T12:26:33;95853.81;;;20.27;38.67
5380;BME280;2713;42.680;23.310;2022-10-16T12:29:14;95858.28;;;20.27;38.51
5380;BME280;2713;42.680;23.310;2022-10-16T12:31:48;95854.19;;;20.31;38.19
5380;BME280;2713;42.680;23.310;2022-10-16T12:34:22;95856.41;;;20.09;38.32
5380;BME280;2713;42.680;23.310;2022-10-16T12:36:53;95855.56;;;19.72;39.13
5380;BME280;2713;42.680;23.310;2022-10-16T12:39:22;95852.84;;;19.54;40.49
5380;BME280;2713;42.680;23.310;2022-10-16T12:42:02;95860.34;;;19.57;40.25
5380;BME280;2713;42.680;23.310;2022-10-16T12:44:33;95854.44;;;19.61;40.03
5380;BME280;2713;42.680;23.310;2022-10-16T12:47:01;95842.81;;;19.44;40.98
5380;BME280;2713;42.680;23.310;2022-10-16T12:49:35;95858.25;;;19.34;40.90
5380;BME280;2713;42.680;23.310;2022-10-16T12:52:03;95861.69;;;19.41;40.18
5380;BME280;2713;42.680;23.310;2022-10-16T12:54:31;95857.25;;;19.29;40.07
5380;BME280;2713;42.680;23.310;2022-10-16T12:57:19;95855.06;;;19.25;40.60
5380;BME280;2713;42.680;23.310;2022-10-16T12:59:57;95862.97;;;19.25;40.75
5380;BME280;2713;42.680;23.310;2022-10-16T13:03:02;95866.25;;;19.21;41.32
5380;BME280;2713;42.680;23.310;2022-10-16T13:05:47;95869.34;;;19.11;41.20
5380;BME280;2713;42.680;23.310;2022-10-16T13:08:39;95860.47;;;19.06;41.73
5380;BME280;2713;42.680;23.310;2022-10-16T13:11:17;95863.47;;;19.09;41.40
5380;BME280;2713;42.680;23.310;2022-10-16T13:14:14;95865.66;;;19.19;41.64
5380;BME280;2713;42.680;23.310;2022-10-16T13:16:52;95865.84;;;19.24;41.04
5380;BME280;2713;42.680;23.310;2022-10-16T13:19:29;95866.88;;;19.16;40.28
5380;BME280;2713;42.680;23.310;2022-10-16T13:22:05;95864.41;;;19.21;39.56
5380;BME280;2713;42.680;23.310;2022-10-16T13:24:48;95866.47;;;19.19;38.94
5380;BME280;2713;42.680;23.310;2022-10-16T13:27:23;95862.78;;;19.27;39.15
5380;BME280;2713;42.680;23.310;2022-10-16T13:30:01;95867.69;;;19.17;39.44
5380;BME280;2713;42.680;23.310;2022-10-16T13:32:28;95868.19;;;19.07;39.55